sensor_id;sensor_type;location;lat;lon;timestamp;temperature;humidity
4249;DHT22;8404;48.752;12.922;2022-08-19T00:01:52;20.20;90.60
4249;DHT22;8404;48.752;12.922;2022-08-19T00:04:25;20.10;90.70
4249;DHT22;8404;48.752;12.922;2022-08-19T00:06:55;20.10;90.70
4249;DHT22;8404;48.752;12.922;2022-08-19T00:09:24;20.10;90.60
4249;DHT22;8404;48.752;12.922;2022-08-19T00:11:54;20.00;90.70
4249;DHT22;8404;48.752;12.922;2022-08-19T00:14:24;20.00;90.90
4249;DHT22;8404;48.752;12.922;2022-08-19T00:16:54;20.00;90.90
4249;DHT22;8404;48.752;12.922;2022-08-19T00:19:22;20.00;90.90
4249;DHT22;8404;48.752;12.922;2022-08-19T00:21:51;20.00;90.80
4249;DHT22;8404;48.752;12.922;2022-08-19T00:24:20;20.00;90.90
4249;DHT22;8404;48.752;12.922;2022-08-19T00:26:49;20.00;91.10
4249;DHT22;8404;48.752;12.922;2022-08-19T00:29:20;20.00;91.30
4249;DHT22;8404;48.752;12.922;2022-08-19T00:31:49;20.00;91.30
4249;DHT22;8404;48.752;12.922;2022-08-19T00:34:20;20.00;91.10
4249;DHT22;8404;48.752;12.922;2022-08-19T00:36:49;20.00;91.20
4249;DHT22;8404;48.752;12.922;2022-08-19T00:39:17;20.10;91.00
4249;DHT22;8404;48.752;12.922;2022-08-19T00:41:48;20.10;91.20
4249;DHT22;8404;48.752;12.922;2022-08-19T00:44:19;20.20;91.00
4249;DHT22;8404;48.752;12.922;2022-08-19T00:46:54;20.30;91.10
4249;DHT22;8404;48.752;12.922;2022-08-19T00:49:28;20.20;91.00
4249;DHT22;8404;48.752;12.922;2022-08-19T00:52:00;20.20;91.00
4249;DHT22;8404;48.752;12.922;2022-08-19T00:54:30;20.30;90.80
4249;DHT22;8404;48.752;12.922;2022-08-19T00:57:02;20.30;90.80
4249;DHT22;8404;48.752;12.922;2022-08-19T00:59:35;20.30;90.90
4249;DHT22;8404;48.752;12.922;2022-08-19T01:02:25;20.30;91.10
4249;DHT22;8404;48.752;12.922;2022-08-19T01:04:54;20.30;91.10
4249;DHT22;8404;48.752;12.922;2022-08-19T01:07:22;20.40;91.10
4249;DHT22;8404;48.752;12.922;2022-08-19T01:09:51;20.40;91.10
4249;DHT22;8404;48.752;12.922;2022-08-19T01:12:21;20.40;91.10
4249;DHT22;8404;48.752;12.922;2022-08-19T01:14:50;20.40;91.10
4249;DHT22;8404;48.752;12.922;2022-08-19T01:17:19;20.40;91.20
4249;DHT22;8404;48.752;12.922;2022-08-19T01:19:48;20.40;91.30
4249;DHT22;8404;48.752;12.922;2022-08-19T01:22:25;20.40;91.50
4249;DHT22;8404;48.752;12.922;2022-08-19T01:25:00;20.40;91.50
4249;DHT22;8404;48.752;12.922;2022-08-19T01:27:37;20.50;91.60
4249;DHT22;8404;48.752;12.922;2022-08-19T01:30:12;20.50;91.60
4249;DHT22;8404;48.752;12.922;2022-08-19T01:32:40;20.50;91.50
4249;DHT22;8404;48.752;12.922;2022-08-19T01:35:11;20.60;91.50
4249;DHT22;8404;48.752;12.922;2022-08-19T01:37:47;20.60;91.40
4249;DHT22;8404;48.752;12.922;2022-08-19T01:40:16;20.70;91.30
4249;DHT22;8404;48.752;12.922;2022-08-19T01:42:47;20.70;91.20
4249;DHT22;8404;48.752;12.922;2022-08-19T01:45:16;20.70;91.10
4249;DHT22;8404;48.752;12.922;2022-08-19T01:47:44;20.70;91.10
4249;DHT22;8404;48.752;12.922;2022-08-19T01:50:28;20.70;91.10
4249;DHT22;8404;48.752;12.922;2022-08-19T01:52:58;20.70;91.30
4249;DHT22;8404;48.752;12.922;2022-08-19T01:55:35;20.70;91.20
4249;DHT22;8404;48.752;12.922;2022-08-19T01:58:10;20.70;91.30
4249;DHT22;8404;48.752;12.922;2022-08-19T02:00:39;20.70;91.30
4249;DHT22;8404;48.752;12.922;2022-08-19T02:03:07;20.70;91.20
4249;DHT22;8404;48.752;12.922;2022-08-19T02:05:36;20.70;91.30
4249;DHT22;8404;48.752;12.922;2022-08-19T02:08:06;20.70;91.20
4249;DHT22;8404;48.752;12.922;2022-08-19T02:10:38;20.70;91.40
4249;DHT22;8404;48.752;12.922;2022-08-19T02:13:07;20.70;91.40
4249;DHT22;8404;48.752;12.922;2022-08-19T02:15:37;20.70;91.50
4249;DHT22;8404;48.752;12.922;2022-08-19T02:18:06;20.70;91.40
4249;DHT22;8404;48.752;12.922;2022-08-19T02:20:36;20.70;91.40
4249;DHT22;8404;48.752;12.922;2022-08-19T02:23:06;20.70;91.40
4249;DHT22;8404;48.752;12.922;2022-08-19T02:25:42;20.70;91.40
4249;DHT22;8404;48.752;12.922;2022-08-19T02:28:11;20.80;91.60
4249;DHT22;8404;48.752;12.922;2022-08-19T02:30:44;20.80;91.60
4249;DHT22;8404;48.752;12.922;2022-08-19T02:33:13;20.80;91.50
4249;DHT22;8404;48.752;12.922;2022-08-19T02:35:42;20.80;91.50
4249;DHT22;8404;48.752;12.922;2022-08-19T02:38:12;20.80;91.50
4249;DHT22;8404;48.752;12.922;2022-08-19T02:40:54;20.80;91.50
4249;DHT22;8404;48.752;12.922;2022-08-19T02:43:22;20.90;91.50
4249;DHT22;8404;48.752;12.922;2022-08-19T02:45:51;20.90;91.50
4249;DHT22;8404;48.752;12.922;2022-08-19T02:48:21;20.90;91.40
4249;DHT22;8404;48.752;12.922;2022-08-19T02:50:51;20.90;91.30
4249;DHT22;8404;48.752;12.922;2022-08-19T02:53:26;20.90;91.30
4249;DHT22;8404;48.752;12.922;2022-08-19T02:55:54;20.90;91.30
4249;DHT22;8404;48.752;12.922;2022-08-19T02:58:23;20.90;91.20
4249;DHT22;8404;48.752;12.922;2022-08-19T03:00:55;20.90;91.00
4249;DHT22;8404;48.752;12.922;2022-08-19T03:03:24;20.90;91.20
4249;DHT22;8404;48.752;12.922;2022-08-19T03:06:03;20.90;91.30
4249;DHT22;8404;48.752;12.922;2022-08-19T03:08:33;20.90;91.10
4249;DHT22;8404;48.752;12.922;2022-08-19T03:11:01;20.90;91.00
4249;DHT22;8404;48.752;12.922;2022-08-19T03:13:29;20.90;91.10
4249;DHT22;8404;48.752;12.922;2022-08-19T03:15:57;20.90;91.10
4249;DHT22;8404;48.752;12.922;2022-08-19T03:18:25;20.90;91.10
4249;DHT22;8404;48.752;12.922;2022-08-19T03:20:55;20.80;91.30
4249;DHT22;8404;48.752;12.922;2022-08-19T03:23:23;20.80;91.30
4249;DHT22;8404;48.752;12.922;2022-08-19T03:25:53;20.80;91.30
4249;DHT22;8404;48.752;12.922;2022-08-19T03:28:41;20.80;91.30
4249;DHT22;8404;48.752;12.922;2022-08-19T03:31:24;20.80;91.30
4249;DHT22;8404;48.752;12.922;2022-08-19T03:34:15;20.80;91.30
4249;DHT22;8404;48.752;12.922;2022-08-19T03:36:45;20.90;91.00
4249;DHT22;8404;48.752;12.922;2022-08-19T03:39:14;20.90;90.90
4249;DHT22;8404;48.752;12.922;2022-08-19T03:41:45;20.80;91.10
4249;DHT22;8404;48.752;12.922;2022-08-19T03:44:16;20.80;91.20
4249;DHT22;8404;48.752;12.922;2022-08-19T03:46:47;20.80;91.30
4249;DHT22;8404;48.752;12.922;2022-08-19T03:49:17;20.80;91.20
4249;DHT22;8404;48.752;12.922;2022-08-19T03:51:47;20.80;91.20
4249;DHT22;8404;48.752;12.922;2022-08-19T03:54:17;20.80;91.30
4249;DHT22;8404;48.752;12.922;2022-08-19T03:56:49;20.80;91.30
4249;DHT22;8404;48.752;12.922;2022-08-19T03:59:21;20.90;91.60
4249;DHT22;8404;48.752;12.922;2022-08-19T04:01:53;20.80;91.40
4249;DHT22;8404;48.752;12.922;2022-08-19T04:04:22;20.90;91.20
4249;DHT22;8404;48.752;12.922;2022-08-19T04:06:55;20.90;91.00
4249;DHT22;8404;48.752;12.922;2022-08-19T04:09:24;20.90;91.20
4249;DHT22;8404;48.752;12.922;2022-08-19T04:11:55;20.90;91.20
4249;DHT22;8404;48.752;12.922;2022-08-19T04:14:26;20.90;91.20
4249;DHT22;8404;48.752;12.922;2022-08-19T04:16:55;20.90;91.00
4249;DHT22;8404;48.752;12.922;2022-08-19T04:19:23;20.90;91.10
4249;DHT22;8404;48.752;12.922;2022-08-19T04:21:53;20.90;91.20
4249;DHT22;8404;48.752;12.922;2022-08-19T04:24:22;20.90;91.20
4249;DHT22;8404;48.752;12.922;2022-08-19T04:26:51;20.90;91.20
4249;DHT22;8404;48.752;12.922;2022-08-19T04:29:22;20.90;91.20
4249;DHT22;8404;48.752;12.922;2022-08-19T04:31:53;20.90;91.20
4249;DHT22;8404;48.752;12.922;2022-08-19T04:34:24;21.00;91.10
4249;DHT22;8404;48.752;12.922;2022-08-19T04:36:55;21.00;91.00
4249;DHT22;8404;48.752;12.922;2022-08-19T04:39:27;21.00;91.10
4249;DHT22;8404;48.752;12.922;2022-08-19T04:42:17;21.00;91.10
4249;DHT22;8404;48.752;12.922;2022-08-19T04:45:06;21.00;91.10
4249;DHT22;8404;48.752;12.922;2022-08-19T04:47:39;21.00;91.10
4249;DHT22;8404;48.752;12.922;2022-08-19T04:50:24;21.00;91.00
4249;DHT22;8404;48.752;12.922;2022-08-19T04:52:52;21.00;91.00
4249;DHT22;8404;48.752;12.922;2022-08-19T04:55:22;21.00;91.00
4249;DHT22;8404;48.752;12.922;2022-08-19T04:57:52;21.00;90.90
4249;DHT22;8404;48.752;12.922;2022-08-19T05:00:23;21.00;90.80
4249;DHT22;8404;48.752;12.922;2022-08-19T05:02:51;21.00;90.80
4249;DHT22;8404;48.752;12.922;2022-08-19T05:05:19;21.00;90.70
4249;DHT22;8404;48.752;12.922;2022-08-19T05:07:48;21.00;90.80
4249;DHT22;8404;48.752;12.922;2022-08-19T05:10:16;21.10;90.80
4249;DHT22;8404;48.752;12.922;2022-08-19T05:12:44;21.10;90.90
4249;DHT22;8404;48.752;12.922;2022-08-19T05:15:13;21.10;90.80
4249;DHT22;8404;48.752;12.922;2022-08-19T05:17:42;21.20;90.90
4249;DHT22;8404;48.752;12.922;2022-08-19T05:20:30;21.20;90.90
4249;DHT22;8404;48.752;12.922;2022-08-19T05:23:16;21.20;90.90
4249;DHT22;8404;48.752;12.922;2022-08-19T05:25:49;21.30;90.90
4249;DHT22;8404;48.752;12.922;2022-08-19T05:28:19;21.30;90.80
4249;DHT22;8404;48.752;12.922;2022-08-19T05:30:48;21.40;90.70
4249;DHT22;8404;48.752;12.922;2022-08-19T05:33:19;21.40;90.50
4249;DHT22;8404;48.752;12.922;2022-08-19T05:35:48;21.40;90.40
4249;DHT22;8404;48.752;12.922;2022-08-19T05:38:17;21.50;90.40
4249;DHT22;8404;48.752;12.922;2022-08-19T05:40:46;21.50;90.30
4249;DHT22;8404;48.752;12.922;2022-08-19T05:43:16;21.60;90.10
4249;DHT22;8404;48.752;12.922;2022-08-19T05:45:45;21.60;90.00
4249;DHT22;8404;48.752;12.922;2022-08-19T05:48:14;21.70;89.60
4249;DHT22;8404;48.752;12.922;2022-08-19T05:50:45;21.80;89.40
4249;DHT22;8404;48.752;12.922;2022-08-19T05:53:17;21.80;89.10
4249;DHT22;8404;48.752;12.922;2022-08-19T05:55:45;21.80;88.80
4249;DHT22;8404;48.752;12.922;2022-08-19T05:58:13;21.80;88.90
4249;DHT22;8404;48.752;12.922;2022-08-19T06:00:43;21.90;88.70
4249;DHT22;8404;48.752;12.922;2022-08-19T06:03:11;21.90;88.70
4249;DHT22;8404;48.752;12.922;2022-08-19T06:05:40;21.90;88.30
4249;DHT22;8404;48.752;12.922;2022-08-19T06:08:19;22.00;88.30
4249;DHT22;8404;48.752;12.922;2022-08-19T06:11:12;22.00;88.10
4249;DHT22;8404;48.752;12.922;2022-08-19T06:13:42;22.00;87.80
4249;DHT22;8404;48.752;12.922;2022-08-19T06:16:11;22.00;87.50
4249;DHT22;8404;48.752;12.922;2022-08-19T06:18:39;22.10;87.50
4249;DHT22;8404;48.752;12.922;2022-08-19T06:21:07;22.10;87.00
4249;DHT22;8404;48.752;12.922;2022-08-19T06:23:37;22.10;87.00
4249;DHT22;8404;48.752;12.922;2022-08-19T06:26:07;22.10;86.40
4249;DHT22;8404;48.752;12.922;2022-08-19T06:28:38;22.10;85.90
4249;DHT22;8404;48.752;12.922;2022-08-19T06:31:09;22.10;85.90
4249;DHT22;8404;48.752;12.922;2022-08-19T06:33:41;22.20;85.50
4249;DHT22;8404;48.752;12.922;2022-08-19T06:36:20;22.10;85.70
4249;DHT22;8404;48.752;12.922;2022-08-19T06:38:53;22.10;85.60
4249;DHT22;8404;48.752;12.922;2022-08-19T06:41:21;22.10;86.00
4249;DHT22;8404;48.752;12.922;2022-08-19T06:43:50;22.10;85.70
4249;DHT22;8404;48.752;12.922;2022-08-19T06:46:23;22.10;85.00
4249;DHT22;8404;48.752;12.922;2022-08-19T06:48:51;22.10;85.50
4249;DHT22;8404;48.752;12.922;2022-08-19T06:51:22;22.00;85.00
4249;DHT22;8404;48.752;12.922;2022-08-19T06:53:54;22.00;85.20
4249;DHT22;8404;48.752;12.922;2022-08-19T06:56:25;21.90;85.40
4249;DHT22;8404;48.752;12.922;2022-08-19T06:58:58;22.00;85.60
4249;DHT22;8404;48.752;12.922;2022-08-19T07:01:26;22.00;85.50
4249;DHT22;8404;48.752;12.922;2022-08-19T07:03:54;22.00;85.60
4249;DHT22;8404;48.752;12.922;2022-08-19T07:06:24;22.00;85.10
4249;DHT22;8404;48.752;12.922;2022-08-19T07:09:13;22.00;85.60
4249;DHT22;8404;48.752;12.922;2022-08-19T07:11:45;22.00;85.30
4249;DHT22;8404;48.752;12.922;2022-08-19T07:14:15;22.10;85.00
4249;DHT22;8404;48.752;12.922;2022-08-19T07:16:46;22.00;84.90
4249;DHT22;8404;48.752;12.922;2022-08-19T07:19:16;22.00;84.90
4249;DHT22;8404;48.752;12.922;2022-08-19T07:21:48;22.00;84.80
4249;DHT22;8404;48.752;12.922;2022-08-19T07:24:19;22.10;84.90
4249;DHT22;8404;48.752;12.922;2022-08-19T07:26:51;22.10;84.70
4249;DHT22;8404;48.752;12.922;2022-08-19T07:29:20;22.10;84.70
4249;DHT22;8404;48.752;12.922;2022-08-19T07:31:54;22.10;84.70
4249;DHT22;8404;48.752;12.922;2022-08-19T07:34:28;22.20;84.80
4249;DHT22;8404;48.752;12.922;2022-08-19T07:36:56;22.20;84.80
4249;DHT22;8404;48.752;12.922;2022-08-19T07:39:29;22.30;84.30
4249;DHT22;8404;48.752;12.922;2022-08-19T07:42:00;22.30;84.60
4249;DHT22;8404;48.752;12.922;2022-08-19T07:44:29;22.40;84.30
4249;DHT22;8404;48.752;12.922;2022-08-19T07:46:57;22.40;84.40
4249;DHT22;8404;48.752;12.922;2022-08-19T07:49:27;22.50;84.20
4249;DHT22;8404;48.752;12.922;2022-08-19T07:51:57;22.60;83.40
4249;DHT22;8404;48.752;12.922;2022-08-19T07:54:31;22.60;83.40
4249;DHT22;8404;48.752;12.922;2022-08-19T07:57:01;22.70;82.70
4249;DHT22;8404;48.752;12.922;2022-08-19T07:59:30;22.70;82.40
4249;DHT22;8404;48.752;12.922;2022-08-19T08:01:59;22.80;81.90
4249;DHT22;8404;48.752;12.922;2022-08-19T08:04:29;22.90;81.40
4249;DHT22;8404;48.752;12.922;2022-08-19T08:07:16;23.10;81.50
4249;DHT22;8404;48.752;12.922;2022-08-19T08:10:04;23.30;80.40
4249;DHT22;8404;48.752;12.922;2022-08-19T08:12:46;23.50;79.80
4249;DHT22;8404;48.752;12.922;2022-08-19T08:15:34;23.70;78.60
4249;DHT22;8404;48.752;12.922;2022-08-19T08:18:09;23.80;79.30
4249;DHT22;8404;48.752;12.922;2022-08-19T08:20:37;24.00;78.70
4249;DHT22;8404;48.752;12.922;2022-08-19T08:23:05;24.10;77.70
4249;DHT22;8404;48.752;12.922;2022-08-19T08:25:56;24.20;77.70
4249;DHT22;8404;48.752;12.922;2022-08-19T08:28:26;24.20;76.40
4249;DHT22;8404;48.752;12.922;2022-08-19T08:30:57;24.10;75.90
4249;DHT22;8404;48.752;12.922;2022-08-19T08:33:28;23.90;76.20
4249;DHT22;8404;48.752;12.922;2022-08-19T08:36:01;23.80;77.00
4249;DHT22;8404;48.752;12.922;2022-08-19T08:38:31;23.70;78.10
4249;DHT22;8404;48.752;12.922;2022-08-19T08:41:13;23.80;78.60
4249;DHT22;8404;48.752;12.922;2022-08-19T08:43:49;23.80;78.40
4249;DHT22;8404;48.752;12.922;2022-08-19T08:46:24;23.80;78.70
4249;DHT22;8404;48.752;12.922;2022-08-19T08:49:03;23.80;79.00
4249;DHT22;8404;48.752;12.922;2022-08-19T08:51:35;23.80;79.00
4249;DHT22;8404;48.752;12.922;2022-08-19T08:54:13;23.90;78.80
4249;DHT22;8404;48.752;12.922;2022-08-19T08:56:44;23.90;78.50
4249;DHT22;8404;48.752;12.922;2022-08-19T08:59:19;23.90;78.50
4249;DHT22;8404;48.752;12.922;2022-08-19T09:01:48;23.90;78.50
4249;DHT22;8404;48.752;12.922;2022-08-19T09:04:17;23.90;78.60
4249;DHT22;8404;48.752;12.922;2022-08-19T09:06:51;23.90;78.60
4249;DHT22;8404;48.752;12.922;2022-08-19T09:09:23;23.90;78.30
4249;DHT22;8404;48.752;12.922;2022-08-19T09:12:05;23.90;78.80
4249;DHT22;8404;48.752;12.922;2022-08-19T09:14:42;24.00;78.40
4249;DHT22;8404;48.752;12.922;2022-08-19T09:17:18;24.00;78.40
4249;DHT22;8404;48.752;12.922;2022-08-19T09:19:52;24.10;77.70
4249;DHT22;8404;48.752;12.922;2022-08-19T09:22:21;24.10;77.50
4249;DHT22;8404;48.752;12.922;2022-08-19T09:24:54;24.10;77.50
4249;DHT22;8404;48.752;12.922;2022-08-19T09:27:26;24.20;77.40
4249;DHT22;8404;48.752;12.922;2022-08-19T09:30:18;24.40;77.50
4249;DHT22;8404;48.752;12.922;2022-08-19T09:32:46;24.60;76.90
4249;DHT22;8404;48.752;12.922;2022-08-19T09:35:19;24.80;76.30
4249;DHT22;8404;48.752;12.922;2022-08-19T09:37:50;24.90;76.10
4249;DHT22;8404;48.752;12.922;2022-08-19T09:40:26;25.10;75.50
4249;DHT22;8404;48.752;12.922;2022-08-19T09:42:58;25.10;74.90
4249;DHT22;8404;48.752;12.922;2022-08-19T09:45:38;25.20;74.70
4249;DHT22;8404;48.752;12.922;2022-08-19T09:48:07;25.20;74.50
4249;DHT22;8404;48.752;12.922;2022-08-19T09:50:37;25.30;74.00
4249;DHT22;8404;48.752;12.922;2022-08-19T09:53:18;25.40;73.70
4249;DHT22;8404;48.752;12.922;2022-08-19T09:55:51;25.50;73.50
4249;DHT22;8404;48.752;12.922;2022-08-19T09:58:21;25.60;73.00
4249;DHT22;8404;48.752;12.922;2022-08-19T10:00:55;25.70;73.10
4249;DHT22;8404;48.752;12.922;2022-08-19T10:03:23;25.80;72.20
4249;DHT22;8404;48.752;12.922;2022-08-19T10:05:58;25.90;71.20
4249;DHT22;8404;48.752;12.922;2022-08-19T10:08:28;26.00;70.30
4249;DHT22;8404;48.752;12.922;2022-08-19T10:10:57;26.10;70.80
4249;DHT22;8404;48.752;12.922;2022-08-19T10:13:47;26.10;70.60
4249;DHT22;8404;48.752;12.922;2022-08-19T10:16:17;26.10;68.10
4249;DHT22;8404;48.752;12.922;2022-08-19T10:18:47;26.20;69.90
4249;DHT22;8404;48.752;12.922;2022-08-19T10:21:18;26.40;70.20
4249;DHT22;8404;48.752;12.922;2022-08-19T10:23:48;26.50;68.70
4249;DHT22;8404;48.752;12.922;2022-08-19T10:26:20;26.70;68.60
4249;DHT22;8404;48.752;12.922;2022-08-19T10:28:54;26.80;68.20
4249;DHT22;8404;48.752;12.922;2022-08-19T10:31:25;26.80;68.30
4249;DHT22;8404;48.752;12.922;2022-08-19T10:34:14;26.70;68.00
4249;DHT22;8404;48.752;12.922;2022-08-19T10:36:54;26.60;68.00
4249;DHT22;8404;48.752;12.922;2022-08-19T10:39:28;26.60;67.90
4249;DHT22;8404;48.752;12.922;2022-08-19T10:41:58;26.70;68.30
4249;DHT22;8404;48.752;12.922;2022-08-19T10:44:28;26.90;67.80
4249;DHT22;8404;48.752;12.922;2022-08-19T10:46:59;27.30;66.90
4249;DHT22;8404;48.752;12.922;2022-08-19T10:49:27;27.70;66.00
4249;DHT22;8404;48.752;12.922;2022-08-19T10:51:56;27.90;64.90
4249;DHT22;8404;48.752;12.922;2022-08-19T10:54:45;28.10;63.70
4249;DHT22;8404;48.752;12.922;2022-08-19T10:57:34;28.00;63.80
4249;DHT22;8404;48.752;12.922;2022-08-19T11:00:25;28.10;63.20
4249;DHT22;8404;48.752;12.922;2022-08-19T11:02:53;28.20;63.80
4249;DHT22;8404;48.752;12.922;2022-08-19T11:05:22;28.30;62.30
4249;DHT22;8404;48.752;12.922;2022-08-19T11:07:51;28.30;63.00
4249;DHT22;8404;48.752;12.922;2022-08-19T11:10:19;28.30;63.20
4249;DHT22;8404;48.752;12.922;2022-08-19T11:12:49;28.30;62.60
4249;DHT22;8404;48.752;12.922;2022-08-19T11:15:19;28.40;62.20
4249;DHT22;8404;48.752;12.922;2022-08-19T11:17:51;28.50;62.20
4249;DHT22;8404;48.752;12.922;2022-08-19T11:20:21;28.50;61.40
4249;DHT22;8404;48.752;12.922;2022-08-19T11:22:52;28.50;61.30
4249;DHT22;8404;48.752;12.922;2022-08-19T11:25:20;28.40;59.80
4249;DHT22;8404;48.752;12.922;2022-08-19T11:27:49;28.20;60.10
4249;DHT22;8404;48.752;12.922;2022-08-19T11:30:19;28.20;60.60
4249;DHT22;8404;48.752;12.922;2022-08-19T11:32:49;28.20;60.40
4249;DHT22;8404;48.752;12.922;2022-08-19T11:35:17;28.30;60.20
4249;DHT22;8404;48.752;12.922;2022-08-19T11:37:47;28.40;59.90
4249;DHT22;8404;48.752;12.922;2022-08-19T11:40:16;28.50;59.50
4249;DHT22;8404;48.752;12.922;2022-08-19T11:42:44;28.60;58.70
4249;DHT22;8404;48.752;12.922;2022-08-19T11:45:26;28.60;57.90
4249;DHT22;8404;48.752;12.922;2022-08-19T11:47:56;28.60;57.20
4249;DHT22;8404;48.752;12.922;2022-08-19T11:50:25;28.60;57.70
4249;DHT22;8404;48.752;12.922;2022-08-19T11:52:54;28.70;57.30
4249;DHT22;8404;48.752;12.922;2022-08-19T11:55:23;28.80;55.90
4249;DHT22;8404;48.752;12.922;2022-08-19T11:57:51;28.90;56.60
4249;DHT22;8404;48.752;12.922;2022-08-19T12:00:20;29.00;55.30
4249;DHT22;8404;48.752;12.922;2022-08-19T12:02:48;29.10;56.10
4249;DHT22;8404;48.752;12.922;2022-08-19T12:05:18;29.30;55.40
4249;DHT22;8404;48.752;12.922;2022-08-19T12:07:46;29.30;54.20
4249;DHT22;8404;48.752;12.922;2022-08-19T12:10:14;29.10;54.50
4249;DHT22;8404;48.752;12.922;2022-08-19T12:12:46;29.20;55.20
4249;DHT22;8404;48.752;12.922;2022-08-19T12:15:25;29.30;55.70
4249;DHT22;8404;48.752;12.922;2022-08-19T12:18:04;29.60;54.70
4249;DHT22;8404;48.752;12.922;2022-08-19T12:20:36;29.80;53.00
4249;DHT22;8404;48.752;12.922;2022-08-19T12:23:05;29.70;51.90
4249;DHT22;8404;48.752;12.922;2022-08-19T12:25:34;29.60;52.50
4249;DHT22;8404;48.752;12.922;2022-08-19T12:28:03;29.60;53.30
4249;DHT22;8404;48.752;12.922;2022-08-19T12:30:31;29.70;53.70
4249;DHT22;8404;48.752;12.922;2022-08-19T12:32:59;29.90;53.70
4249;DHT22;8404;48.752;12.922;2022-08-19T12:35:27;30.00;53.40
4249;DHT22;8404;48.752;12.922;2022-08-19T12:37:58;30.10;52.40
4249;DHT22;8404;48.752;12.922;2022-08-19T12:40:29;30.10;52.50
4249;DHT22;8404;48.752;12.922;2022-08-19T12:42:57;30.20;51.20
4249;DHT22;8404;48.752;12.922;2022-08-19T12:45:25;30.50;52.40
4249;DHT22;8404;48.752;12.922;2022-08-19T12:47:54;30.70;51.80
4249;DHT22;8404;48.752;12.922;2022-08-19T12:50:22;30.60;51.80
4249;DHT22;8404;48.752;12.922;2022-08-19T12:52:50;30.50;51.60
4249;DHT22;8404;48.752;12.922;2022-08-19T12:55:20;30.40;51.70
4249;DHT22;8404;48.752;12.922;2022-08-19T12:57:49;30.10;51.60
4249;DHT22;8404;48.752;12.922;2022-08-19T13:00:19;29.90;51.50
4249;DHT22;8404;48.752;12.922;2022-08-19T13:02:49;29.90;52.00
4249;DHT22;8404;48.752;12.922;2022-08-19T13:05:19;29.70;52.10
4249;DHT22;8404;48.752;12.922;2022-08-19T13:07:51;29.50;52.90
4249;DHT22;8404;48.752;12.922;2022-08-19T13:10:26;29.30;52.50
4249;DHT22;8404;48.752;12.922;2022-08-19T13:12:55;29.00;53.30
4249;DHT22;8404;48.752;12.922;2022-08-19T13:15:23;28.90;52.60
4249;DHT22;8404;48.752;12.922;2022-08-19T13:17:53;28.50;53.30
4249;DHT22;8404;48.752;12.922;2022-08-19T13:20:23;28.10;56.80
4249;DHT22;8404;48.752;12.922;2022-08-19T13:22:52;27.70;58.30
4249;DHT22;8404;48.752;12.922;2022-08-19T13:25:20;27.30;59.60
4249;DHT22;8404;48.752;12.922;2022-08-19T13:27:50;27.10;60.70
4249;DHT22;8404;48.752;12.922;2022-08-19T13:30:20;26.90;61.10
4249;DHT22;8404;48.752;12.922;2022-08-19T13:33:06;26.70;62.60
4249;DHT22;8404;48.752;12.922;2022-08-19T13:35:46;26.40;64.50
4249;DHT22;8404;48.752;12.922;2022-08-19T13:38:17;26.30;65.60
4249;DHT22;8404;48.752;12.922;2022-08-19T13:40:48;26.70;64.60
4249;DHT22;8404;48.752;12.922;2022-08-19T13:43:19;27.70;62.20
4249;DHT22;8404;48.752;12.922;2022-08-19T13:45:50;28.50;60.80
4249;DHT22;8404;48.752;12.922;2022-08-19T13:48:19;28.90;59.80
4249;DHT22;8404;48.752;12.922;2022-08-19T13:50:47;29.60;57.40
4249;DHT22;8404;48.752;12.922;2022-08-19T13:53:16;30.50;55.00
4249;DHT22;8404;48.752;12.922;2022-08-19T13:55:44;30.40;54.30
4249;DHT22;8404;48.752;12.922;2022-08-19T13:58:13;30.30;54.80
4249;DHT22;8404;48.752;12.922;2022-08-19T14:00:45;31.00;54.20
4249;DHT22;8404;48.752;12.922;2022-08-19T14:03:14;31.80;52.80
4249;DHT22;8404;48.752;12.922;2022-08-19T14:05:42;31.70;52.50
4249;DHT22;8404;48.752;12.922;2022-08-19T14:08:11;30.90;53.60
4249;DHT22;8404;48.752;12.922;2022-08-19T14:10:41;30.70;53.70
4249;DHT22;8404;48.752;12.922;2022-08-19T14:13:14;29.80;54.70
4249;DHT22;8404;48.752;12.922;2022-08-19T14:15:45;28.90;56.20
4249;DHT22;8404;48.752;12.922;2022-08-19T14:18:14;28.30;57.60
4249;DHT22;8404;48.752;12.922;2022-08-19T14:20:43;27.80;58.80
4249;DHT22;8404;48.752;12.922;2022-08-19T14:23:11;27.80;59.60
4249;DHT22;8404;48.752;12.922;2022-08-19T14:25:43;28.60;57.90
4249;DHT22;8404;48.752;12.922;2022-08-19T14:28:11;28.70;56.90
4249;DHT22;8404;48.752;12.922;2022-08-19T14:30:40;28.60;58.00
4249;DHT22;8404;48.752;12.922;2022-08-19T14:33:09;28.70;57.00
4249;DHT22;8404;48.752;12.922;2022-08-19T14:35:38;28.80;56.70
4249;DHT22;8404;48.752;12.922;2022-08-19T14:38:16;28.60;56.70
4249;DHT22;8404;48.752;12.922;2022-08-19T14:41:10;28.10;57.50
4249;DHT22;8404;48.752;12.922;2022-08-19T14:43:38;27.70;59.00
4249;DHT22;8404;48.752;12.922;2022-08-19T14:46:07;27.70;59.30
4249;DHT22;8404;48.752;12.922;2022-08-19T14:48:38;28.20;57.60
4249;DHT22;8404;48.752;12.922;2022-08-19T14:51:07;28.40;58.00
4249;DHT22;8404;48.752;12.922;2022-08-19T14:53:36;29.40;57.20
4249;DHT22;8404;48.752;12.922;2022-08-19T14:56:08;30.60;54.80
4249;DHT22;8404;48.752;12.922;2022-08-19T14:58:37;31.40;52.70
4249;DHT22;8404;48.752;12.922;2022-08-19T15:01:08;31.60;51.00
4249;DHT22;8404;48.752;12.922;2022-08-19T15:03:38;31.60;50.30
4249;DHT22;8404;48.752;12.922;2022-08-19T15:06:08;31.30;51.20
4249;DHT22;8404;48.752;12.922;2022-08-19T15:08:40;30.80;51.20
4249;DHT22;8404;48.752;12.922;2022-08-19T15:11:11;30.10;51.80
4249;DHT22;8404;48.752;12.922;2022-08-19T15:13:42;29.50;53.20
4249;DHT22;8404;48.752;12.922;2022-08-19T15:16:11;29.00;54.20
4249;DHT22;8404;48.752;12.922;2022-08-19T15:18:46;28.60;55.30
4249;DHT22;8404;48.752;12.922;2022-08-19T15:21:17;28.20;56.10
4249;DHT22;8404;48.752;12.922;2022-08-19T15:23:53;28.00;56.80
4249;DHT22;8404;48.752;12.922;2022-08-19T15:26:22;27.70;57.70
4249;DHT22;8404;48.752;12.922;2022-08-19T15:28:52;27.50;58.40
4249;DHT22;8404;48.752;12.922;2022-08-19T15:31:21;27.80;58.40
4249;DHT22;8404;48.752;12.922;2022-08-19T15:33:56;28.30;57.90
4249;DHT22;8404;48.752;12.922;2022-08-19T15:36:25;29.40;57.00
4249;DHT22;8404;48.752;12.922;2022-08-19T15:38:54;30.40;53.70
4249;DHT22;8404;48.752;12.922;2022-08-19T15:41:25;30.60;51.90
4249;DHT22;8404;48.752;12.922;2022-08-19T15:43:55;30.70;52.50
4249;DHT22;8404;48.752;12.922;2022-08-19T15:46:27;30.50;52.40
4249;DHT22;8404;48.752;12.922;2022-08-19T15:48:57;30.00;53.30
4249;DHT22;8404;48.752;12.922;2022-08-19T15:51:28;30.10;53.00
4249;DHT22;8404;48.752;12.922;2022-08-19T15:53:58;30.00;53.20
4249;DHT22;8404;48.752;12.922;2022-08-19T15:56:27;29.50;53.60
4249;DHT22;8404;48.752;12.922;2022-08-19T15:59:24;29.20;54.80
4249;DHT22;8404;48.752;12.922;2022-08-19T16:02:14;29.70;54.40
4249;DHT22;8404;48.752;12.922;2022-08-19T16:05:02;29.90;53.60
4249;DHT22;8404;48.752;12.922;2022-08-19T16:07:48;29.80;53.10
4249;DHT22;8404;48.752;12.922;2022-08-19T16:10:17;30.00;53.40
4249;DHT22;8404;48.752;12.922;2022-08-19T16:12:54;29.70;53.20
4249;DHT22;8404;48.752;12.922;2022-08-19T16:15:24;29.20;54.20